Taftville, CT (06380)

6:07 AM EDT on July 23, 2016 (GMT -0400)
Lisbon | | Change Station

Elev 180 ft 41.58 °N, 72.02 °W | Updated 10 seconds ago

Clear
Clear
68.8 °F
Feels Like 68.8 °F
N
0.0
Wind Variable Wind from North
Gusts 0.0 mph

Today
High -- | Low -- °F
--% Chance of Precip.
Yesterday
High -- | Low -- °F
Precip. -- in
Pressure 29.78 in
Visibility 4.0 miles
Clouds Clear
Dew Point 67 °F
Humidity 95%
Rainfall 0.00 in
Snow Depth Not available.
5:34 AM 8:14 PM
Waning Gibbous, 86% visible
METAR KGON 230956Z AUTO 00000KT 4SM BR CLR 22/21 A2978 RMK AO2 SLP084 T02220206
Pressure 29.78 in
Visibility 4.0 miles
Clouds Clear
Dew Point 67 °F
Humidity 95%
Rainfall 0.00 in
Snow Depth Not available.
5:34 AM 8:14 PM
Waning Gibbous, 86% visible
METAR KGON 230956Z AUTO 00000KT 4SM BR CLR 22/21 A2978 RMK AO2 SLP084 T02220206

10-Day Weather Forecast

Almanac

Astronomy

Jul. 23, 2016 Rise Set
Actual Time
Civil Twilight
Nautical Twilight
Astronomical Twilight
Moon
Length of Visible Light
Length of Day
Tomorrow will be .
, % of the Moon is Illuminated

Today's Extremes

State Highs State Lows

Community

WunderPhotos

Upload Photos

1,926,790 photos uploaded!

WunderBlog® & News

Nearby

Air Quality

  Air Quality AQ Index Pollutant
Not available.

Snow Depth

Station Depth Elevation

Earthquake Activity

City Distance Mag. Time & Date
Minimum magnitude displayed is 2.5.

Coastal Water Temperatures

Place Temperature

Stations

Nearby Weather Stations

Station Location Temp. Windchill Dew Point Humidity Wind Precip. Elev Updated Type
                   

Watches & Warnings

There are currently no watches in effect.